sensor_id;sensor_type;location;lat;lon;timestamp;temperature;humidity
20376;DHT22;10347;51.828;6.466;2022-10-31T00:01:31;17.60;99.90
20376;DHT22;10347;51.828;6.466;2022-10-31T00:03:57;17.70;99.90
20376;DHT22;10347;51.828;6.466;2022-10-31T00:06:24;17.60;99.90
20376;DHT22;10347;51.828;6.466;2022-10-31T00:08:55;17.60;99.90
20376;DHT22;10347;51.828;6.466;2022-10-31T00:11:22;17.60;99.90
20376;DHT22;10347;51.828;6.466;2022-10-31T00:13:47;17.60;99.90
20376;DHT22;10347;51.828;6.466;2022-10-31T00:16:18;17.60;99.90
20376;DHT22;10347;51.828;6.466;2022-10-31T00:18:48;17.60;99.90
20376;DHT22;10347;51.828;6.466;2022-10-31T00:21:14;17.60;99.90
20376;DHT22;10347;51.828;6.466;2022-10-31T00:23:40;17.60;99.90
20376;DHT22;10347;51.828;6.466;2022-10-31T00:26:05;17.60;99.90
20376;DHT22;10347;51.828;6.466;2022-10-31T00:28:32;17.50;99.90
20376;DHT22;10347;51.828;6.466;2022-10-31T00:31:02;17.50;99.90
20376;DHT22;10347;51.828;6.466;2022-10-31T00:33:28;17.50;99.90
20376;DHT22;10347;51.828;6.466;2022-10-31T00:35:54;17.50;99.90
20376;DHT22;10347;51.828;6.466;2022-10-31T00:38:20;17.50;99.90
20376;DHT22;10347;51.828;6.466;2022-10-31T00:40:45;17.50;99.90
20376;DHT22;10347;51.828;6.466;2022-10-31T00:43:11;17.40;99.90
20376;DHT22;10347;51.828;6.466;2022-10-31T00:45:36;17.40;99.90
20376;DHT22;10347;51.828;6.466;2022-10-31T00:48:02;17.40;99.90
20376;DHT22;10347;51.828;6.466;2022-10-31T00:50:28;17.40;99.90
20376;DHT22;10347;51.828;6.466;2022-10-31T00:52:53;17.40;99.90
20376;DHT22;10347;51.828;6.466;2022-10-31T00:55:19;17.40;99.90
20376;DHT22;10347;51.828;6.466;2022-10-31T00:57:47;17.40;99.90
20376;DHT22;10347;51.828;6.466;2022-10-31T01:00:14;17.40;99.90
20376;DHT22;10347;51.828;6.466;2022-10-31T01:02:39;17.30;99.90
20376;DHT22;10347;51.828;6.466;2022-10-31T01:05:05;17.30;99.90
20376;DHT22;10347;51.828;6.466;2022-10-31T01:07:31;17.30;99.90
20376;DHT22;10347;51.828;6.466;2022-10-31T01:09:56;17.30;99.90
20376;DHT22;10347;51.828;6.466;2022-10-31T01:12:22;17.30;99.90
20376;DHT22;10347;51.828;6.466;2022-10-31T01:14:48;17.30;99.90
20376;DHT22;10347;51.828;6.466;2022-10-31T01:17:14;17.30;99.90
20376;DHT22;10347;51.828;6.466;2022-10-31T01:19:39;17.30;99.90
20376;DHT22;10347;51.828;6.466;2022-10-31T01:22:05;17.30;99.90
20376;DHT22;10347;51.828;6.466;2022-10-31T01:24:31;17.20;99.90
20376;DHT22;10347;51.828;6.466;2022-10-31T01:26:57;17.20;99.90
20376;DHT22;10347;51.828;6.466;2022-10-31T01:29:22;17.20;99.90
20376;DHT22;10347;51.828;6.466;2022-10-31T01:31:48;17.20;99.90
20376;DHT22;10347;51.828;6.466;2022-10-31T01:34:15;17.10;99.90
20376;DHT22;10347;51.828;6.466;2022-10-31T01:36:41;17.10;99.90
20376;DHT22;10347;51.828;6.466;2022-10-31T01:39:14;17.10;99.90
20376;DHT22;10347;51.828;6.466;2022-10-31T01:41:42;17.00;99.90
20376;DHT22;10347;51.828;6.466;2022-10-31T01:51:49;16.80;99.90
20376;DHT22;10347;51.828;6.466;2022-10-31T01:54:18;16.80;99.90
20376;DHT22;10347;51.828;6.466;2022-10-31T01:56:49;16.80;99.90
20376;DHT22;10347;51.828;6.466;2022-10-31T01:59:19;16.80;99.90
20376;DHT22;10347;51.828;6.466;2022-10-31T02:01:46;16.80;99.90
20376;DHT22;10347;51.828;6.466;2022-10-31T02:04:12;16.80;99.90
20376;DHT22;10347;51.828;6.466;2022-10-31T02:06:47;16.80;99.90
20376;DHT22;10347;51.828;6.466;2022-10-31T02:09:15;16.70;99.90
20376;DHT22;10347;51.828;6.466;2022-10-31T02:11:42;16.70;99.90
20376;DHT22;10347;51.828;6.466;2022-10-31T02:14:08;16.70;99.90
20376;DHT22;10347;51.828;6.466;2022-10-31T02:16:33;16.60;99.90
20376;DHT22;10347;51.828;6.466;2022-10-31T02:18:59;16.70;99.90
20376;DHT22;10347;51.828;6.466;2022-10-31T02:21:55;16.70;99.90
20376;DHT22;10347;51.828;6.466;2022-10-31T02:24:58;16.60;99.90
20376;DHT22;10347;51.828;6.466;2022-10-31T02:33:25;16.50;99.90
20376;DHT22;10347;51.828;6.466;2022-10-31T02:36:02;16.50;99.90
20376;DHT22;10347;51.828;6.466;2022-10-31T02:38:41;16.50;99.90
20376;DHT22;10347;51.828;6.466;2022-10-31T02:41:20;16.50;99.90
20376;DHT22;10347;51.828;6.466;2022-10-31T02:49:23;16.40;99.90
20376;DHT22;10347;51.828;6.466;2022-10-31T02:51:50;16.40;99.90
20376;DHT22;10347;51.828;6.466;2022-10-31T02:54:24;16.40;99.90
20376;DHT22;10347;51.828;6.466;2022-10-31T02:56:53;16.40;99.90
20376;DHT22;10347;51.828;6.466;2022-10-31T02:59:20;16.30;99.90
20376;DHT22;10347;51.828;6.466;2022-10-31T03:08:05;16.30;99.90
20376;DHT22;10347;51.828;6.466;2022-10-31T03:10:55;16.30;99.90
20376;DHT22;10347;51.828;6.466;2022-10-31T03:13:39;16.20;99.90
20376;DHT22;10347;51.828;6.466;2022-10-31T03:19:25;16.20;99.90
20376;DHT22;10347;51.828;6.466;2022-10-31T03:22:03;16.20;99.90
20376;DHT22;10347;51.828;6.466;2022-10-31T03:24:36;16.10;99.90
20376;DHT22;10347;51.828;6.466;2022-10-31T03:27:04;16.10;99.90
20376;DHT22;10347;51.828;6.466;2022-10-31T03:29:34;16.10;99.90
20376;DHT22;10347;51.828;6.466;2022-10-31T03:32:07;16.10;99.90
20376;DHT22;10347;51.828;6.466;2022-10-31T03:34:35;16.10;99.90
20376;DHT22;10347;51.828;6.466;2022-10-31T03:37:04;16.10;99.90
20376;DHT22;10347;51.828;6.466;2022-10-31T03:39:31;16.10;99.90
20376;DHT22;10347;51.828;6.466;2022-10-31T03:42:06;16.10;99.90
20376;DHT22;10347;51.828;6.466;2022-10-31T03:44:34;16.10;99.90
20376;DHT22;10347;51.828;6.466;2022-10-31T03:47:01;16.10;99.90
20376;DHT22;10347;51.828;6.466;2022-10-31T03:49:28;16.00;99.90
20376;DHT22;10347;51.828;6.466;2022-10-31T03:52:07;16.00;99.90
20376;DHT22;10347;51.828;6.466;2022-10-31T03:54:57;16.00;99.90
20376;DHT22;10347;51.828;6.466;2022-10-31T04:00:13;15.90;99.90
20376;DHT22;10347;51.828;6.466;2022-10-31T04:02:42;15.90;99.90
20376;DHT22;10347;51.828;6.466;2022-10-31T04:05:10;15.90;99.90
20376;DHT22;10347;51.828;6.466;2022-10-31T04:07:41;15.90;99.90
20376;DHT22;10347;51.828;6.466;2022-10-31T04:10:11;15.80;99.90
20376;DHT22;10347;51.828;6.466;2022-10-31T04:12:39;15.80;99.90
20376;DHT22;10347;51.828;6.466;2022-10-31T04:15:06;15.70;99.90
20376;DHT22;10347;51.828;6.466;2022-10-31T04:17:36;15.70;99.90
20376;DHT22;10347;51.828;6.466;2022-10-31T04:20:04;15.70;99.90
20376;DHT22;10347;51.828;6.466;2022-10-31T04:22:29;15.70;99.90
20376;DHT22;10347;51.828;6.466;2022-10-31T04:24:55;15.60;99.90
20376;DHT22;10347;51.828;6.466;2022-10-31T04:27:21;15.60;99.90
20376;DHT22;10347;51.828;6.466;2022-10-31T04:29:46;15.50;99.90
20376;DHT22;10347;51.828;6.466;2022-10-31T04:32:12;15.50;99.90
20376;DHT22;10347;51.828;6.466;2022-10-31T04:34:37;15.50;99.90
20376;DHT22;10347;51.828;6.466;2022-10-31T04:37:03;15.60;99.90
20376;DHT22;10347;51.828;6.466;2022-10-31T04:39:28;15.60;99.90
20376;DHT22;10347;51.828;6.466;2022-10-31T04:41:54;15.50;99.90
20376;DHT22;10347;51.828;6.466;2022-10-31T04:44:19;15.50;99.90
20376;DHT22;10347;51.828;6.466;2022-10-31T04:46:45;15.50;99.90
20376;DHT22;10347;51.828;6.466;2022-10-31T04:49:11;15.50;99.90
20376;DHT22;10347;51.828;6.466;2022-10-31T04:51:36;15.40;99.90
20376;DHT22;10347;51.828;6.466;2022-10-31T04:54:02;15.40;99.90
20376;DHT22;10347;51.828;6.466;2022-10-31T04:56:28;15.40;99.90
20376;DHT22;10347;51.828;6.466;2022-10-31T04:58:54;15.40;99.90
20376;DHT22;10347;51.828;6.466;2022-10-31T05:01:19;15.40;99.90
20376;DHT22;10347;51.828;6.466;2022-10-31T05:03:45;15.40;99.90
20376;DHT22;10347;51.828;6.466;2022-10-31T05:06:10;15.30;99.90
20376;DHT22;10347;51.828;6.466;2022-10-31T05:08:36;15.30;99.90
20376;DHT22;10347;51.828;6.466;2022-10-31T05:11:03;15.30;99.90
20376;DHT22;10347;51.828;6.466;2022-10-31T05:13:29;15.30;99.90
20376;DHT22;10347;51.828;6.466;2022-10-31T05:15:54;15.30;99.90
20376;DHT22;10347;51.828;6.466;2022-10-31T05:18:20;15.40;99.90
20376;DHT22;10347;51.828;6.466;2022-10-31T05:20:45;15.40;99.90
20376;DHT22;10347;51.828;6.466;2022-10-31T05:23:11;15.30;99.90
20376;DHT22;10347;51.828;6.466;2022-10-31T05:25:37;15.30;99.90
20376;DHT22;10347;51.828;6.466;2022-10-31T05:28:02;15.30;99.90
20376;DHT22;10347;51.828;6.466;2022-10-31T05:30:30;15.20;99.90
20376;DHT22;10347;51.828;6.466;2022-10-31T05:32:56;15.20;99.90
20376;DHT22;10347;51.828;6.466;2022-10-31T05:35:33;15.20;99.90
20376;DHT22;10347;51.828;6.466;2022-10-31T05:37:59;15.20;99.90
20376;DHT22;10347;51.828;6.466;2022-10-31T05:40:26;15.20;99.90
20376;DHT22;10347;51.828;6.466;2022-10-31T05:42:53;15.20;99.90
20376;DHT22;10347;51.828;6.466;2022-10-31T05:45:20;15.20;99.90
20376;DHT22;10347;51.828;6.466;2022-10-31T05:47:59;15.20;99.90
20376;DHT22;10347;51.828;6.466;2022-10-31T05:50:26;15.20;99.90
20376;DHT22;10347;51.828;6.466;2022-10-31T05:53:00;15.20;99.90
20376;DHT22;10347;51.828;6.466;2022-10-31T05:55:27;15.20;99.90
20376;DHT22;10347;51.828;6.466;2022-10-31T05:57:54;15.20;99.90
20376;DHT22;10347;51.828;6.466;2022-10-31T06:00:20;15.30;99.90
20376;DHT22;10347;51.828;6.466;2022-10-31T06:02:46;15.20;99.90
20376;DHT22;10347;51.828;6.466;2022-10-31T06:05:12;15.20;99.90
20376;DHT22;10347;51.828;6.466;2022-10-31T06:07:37;15.20;99.90
20376;DHT22;10347;51.828;6.466;2022-10-31T06:10:05;15.20;99.90
20376;DHT22;10347;51.828;6.466;2022-10-31T06:12:31;15.20;99.90
20376;DHT22;10347;51.828;6.466;2022-10-31T06:14:57;15.20;99.90
20376;DHT22;10347;51.828;6.466;2022-10-31T06:17:22;15.20;99.90
20376;DHT22;10347;51.828;6.466;2022-10-31T06:19:48;15.20;99.90
20376;DHT22;10347;51.828;6.466;2022-10-31T06:22:13;15.10;99.90
20376;DHT22;10347;51.828;6.466;2022-10-31T06:24:39;15.20;99.90
20376;DHT22;10347;51.828;6.466;2022-10-31T06:27:04;15.10;99.90
20376;DHT22;10347;51.828;6.466;2022-10-31T06:29:31;15.10;99.90
20376;DHT22;10347;51.828;6.466;2022-10-31T06:31:56;15.10;99.90
20376;DHT22;10347;51.828;6.466;2022-10-31T06:34:22;15.10;99.90
20376;DHT22;10347;51.828;6.466;2022-10-31T06:36:47;15.10;99.90
20376;DHT22;10347;51.828;6.466;2022-10-31T06:39:13;15.10;99.90
20376;DHT22;10347;51.828;6.466;2022-10-31T06:41:39;15.10;99.90
20376;DHT22;10347;51.828;6.466;2022-10-31T06:44:06;15.10;99.90
20376;DHT22;10347;51.828;6.466;2022-10-31T06:46:31;15.10;99.90
20376;DHT22;10347;51.828;6.466;2022-10-31T06:48:57;15.00;99.90
20376;DHT22;10347;51.828;6.466;2022-10-31T06:51:23;15.10;99.90
20376;DHT22;10347;51.828;6.466;2022-10-31T06:53:48;15.00;99.90
20376;DHT22;10347;51.828;6.466;2022-10-31T06:56:14;15.00;99.90
20376;DHT22;10347;51.828;6.466;2022-10-31T06:58:40;15.00;99.90
20376;DHT22;10347;51.828;6.466;2022-10-31T07:01:05;15.00;99.90
20376;DHT22;10347;51.828;6.466;2022-10-31T07:03:31;14.90;99.90
20376;DHT22;10347;51.828;6.466;2022-10-31T07:05:56;14.90;99.90
20376;DHT22;10347;51.828;6.466;2022-10-31T07:08:23;14.90;99.90
20376;DHT22;10347;51.828;6.466;2022-10-31T07:10:55;14.90;99.90
20376;DHT22;10347;51.828;6.466;2022-10-31T07:13:21;14.90;99.90
20376;DHT22;10347;51.828;6.466;2022-10-31T07:15:52;14.90;99.90
20376;DHT22;10347;51.828;6.466;2022-10-31T07:18:18;14.90;99.90
20376;DHT22;10347;51.828;6.466;2022-10-31T07:20:44;14.80;99.90
20376;DHT22;10347;51.828;6.466;2022-10-31T07:23:10;14.80;99.90
20376;DHT22;10347;51.828;6.466;2022-10-31T07:25:37;14.80;99.90
20376;DHT22;10347;51.828;6.466;2022-10-31T07:28:03;14.80;99.90
20376;DHT22;10347;51.828;6.466;2022-10-31T07:30:28;14.80;99.90
20376;DHT22;10347;51.828;6.466;2022-10-31T07:32:54;14.80;99.90
20376;DHT22;10347;51.828;6.466;2022-10-31T07:35:26;14.80;99.90
20376;DHT22;10347;51.828;6.466;2022-10-31T07:37:53;14.80;99.90
20376;DHT22;10347;51.828;6.466;2022-10-31T07:40:20;14.80;99.90
20376;DHT22;10347;51.828;6.466;2022-10-31T07:42:48;14.80;99.90
20376;DHT22;10347;51.828;6.466;2022-10-31T07:45:18;14.80;99.90
20376;DHT22;10347;51.828;6.466;2022-10-31T07:47:46;14.80;99.90
20376;DHT22;10347;51.828;6.466;2022-10-31T07:50:17;14.80;99.90
20376;DHT22;10347;51.828;6.466;2022-10-31T07:52:43;14.80;99.90
20376;DHT22;10347;51.828;6.466;2022-10-31T07:55:10;14.80;99.90
20376;DHT22;10347;51.828;6.466;2022-10-31T07:57:36;14.80;99.90
20376;DHT22;10347;51.828;6.466;2022-10-31T08:00:05;14.80;99.90
20376;DHT22;10347;51.828;6.466;2022-10-31T08:02:31;14.80;99.90
20376;DHT22;10347;51.828;6.466;2022-10-31T08:04:57;14.70;99.90
20376;DHT22;10347;51.828;6.466;2022-10-31T08:07:23;14.70;99.90
20376;DHT22;10347;51.828;6.466;2022-10-31T08:09:48;14.70;99.90
20376;DHT22;10347;51.828;6.466;2022-10-31T08:12:14;14.70;99.90
20376;DHT22;10347;51.828;6.466;2022-10-31T08:14:39;14.70;99.90
20376;DHT22;10347;51.828;6.466;2022-10-31T08:17:05;14.80;99.90
20376;DHT22;10347;51.828;6.466;2022-10-31T08:19:30;14.80;99.90
20376;DHT22;10347;51.828;6.466;2022-10-31T08:21:56;14.80;99.90
20376;DHT22;10347;51.828;6.466;2022-10-31T08:24:22;14.80;99.90
20376;DHT22;10347;51.828;6.466;2022-10-31T08:26:47;14.80;99.90
20376;DHT22;10347;51.828;6.466;2022-10-31T08:29:14;14.80;99.90
20376;DHT22;10347;51.828;6.466;2022-10-31T08:31:40;14.80;99.90
20376;DHT22;10347;51.828;6.466;2022-10-31T08:34:06;14.80;99.90
20376;DHT22;10347;51.828;6.466;2022-10-31T08:36:31;14.90;99.90
20376;DHT22;10347;51.828;6.466;2022-10-31T08:38:57;14.90;99.90
20376;DHT22;10347;51.828;6.466;2022-10-31T08:41:22;15.00;99.90
20376;DHT22;10347;51.828;6.466;2022-10-31T08:43:48;15.00;99.90
20376;DHT22;10347;51.828;6.466;2022-10-31T08:46:14;15.00;99.90
20376;DHT22;10347;51.828;6.466;2022-10-31T08:48:39;15.10;99.90
20376;DHT22;10347;51.828;6.466;2022-10-31T08:51:05;15.10;99.90
20376;DHT22;10347;51.828;6.466;2022-10-31T08:53:31;15.10;99.90
20376;DHT22;10347;51.828;6.466;2022-10-31T08:55:57;15.10;99.90
20376;DHT22;10347;51.828;6.466;2022-10-31T08:58:23;15.10;99.90
20376;DHT22;10347;51.828;6.466;2022-10-31T09:00:51;15.20;99.90
20376;DHT22;10347;51.828;6.466;2022-10-31T09:03:26;15.30;99.90
20376;DHT22;10347;51.828;6.466;2022-10-31T09:05:56;15.30;99.90
20376;DHT22;10347;51.828;6.466;2022-10-31T09:08:22;15.30;99.90
20376;DHT22;10347;51.828;6.466;2022-10-31T09:10:48;15.40;99.90
20376;DHT22;10347;51.828;6.466;2022-10-31T09:13:15;15.30;99.90
20376;DHT22;10347;51.828;6.466;2022-10-31T09:15:43;15.40;99.90
20376;DHT22;10347;51.828;6.466;2022-10-31T09:18:10;15.50;99.90
20376;DHT22;10347;51.828;6.466;2022-10-31T09:20:37;15.50;99.90
20376;DHT22;10347;51.828;6.466;2022-10-31T09:23:05;15.60;99.90
20376;DHT22;10347;51.828;6.466;2022-10-31T09:25:32;15.60;99.90
20376;DHT22;10347;51.828;6.466;2022-10-31T09:27:59;15.70;99.90
20376;DHT22;10347;51.828;6.466;2022-10-31T09:30:27;15.70;99.90
20376;DHT22;10347;51.828;6.466;2022-10-31T09:33:04;15.70;99.90
20376;DHT22;10347;51.828;6.466;2022-10-31T09:35:30;15.80;99.90
20376;DHT22;10347;51.828;6.466;2022-10-31T09:38:01;15.80;99.90
20376;DHT22;10347;51.828;6.466;2022-10-31T09:40:35;15.90;99.90
20376;DHT22;10347;51.828;6.466;2022-10-31T09:43:14;16.00;99.90
20376;DHT22;10347;51.828;6.466;2022-10-31T09:49:05;16.10;99.90
20376;DHT22;10347;51.828;6.466;2022-10-31T09:51:41;16.10;99.90
20376;DHT22;10347;51.828;6.466;2022-10-31T09:54:16;16.10;99.90
20376;DHT22;10347;51.828;6.466;2022-10-31T09:56:43;16.20;99.90
20376;DHT22;10347;51.828;6.466;2022-10-31T09:59:35;16.30;99.90
20376;DHT22;10347;51.828;6.466;2022-10-31T10:05:03;16.40;99.90
20376;DHT22;10347;51.828;6.466;2022-10-31T10:07:40;16.50;99.90
20376;DHT22;10347;51.828;6.466;2022-10-31T10:10:35;16.50;99.90
20376;DHT22;10347;51.828;6.466;2022-10-31T10:19:12;16.70;99.90
20376;DHT22;10347;51.828;6.466;2022-10-31T10:27:05;16.90;99.90
20376;DHT22;10347;51.828;6.466;2022-10-31T10:32:25;16.90;99.90
20376;DHT22;10347;51.828;6.466;2022-10-31T10:34:58;17.00;99.90
20376;DHT22;10347;51.828;6.466;2022-10-31T10:37:30;17.00;99.90
20376;DHT22;10347;51.828;6.466;2022-10-31T10:40:24;17.00;99.90
20376;DHT22;10347;51.828;6.466;2022-10-31T10:45:40;17.20;99.90
20376;DHT22;10347;51.828;6.466;2022-10-31T10:51:15;17.20;99.90
20376;DHT22;10347;51.828;6.466;2022-10-31T10:53:54;17.30;99.90
20376;DHT22;10347;51.828;6.466;2022-10-31T10:56:55;17.30;99.90
20376;DHT22;10347;51.828;6.466;2022-10-31T10:59:23;17.40;99.90
20376;DHT22;10347;51.828;6.466;2022-10-31T11:01:51;17.40;99.90
20376;DHT22;10347;51.828;6.466;2022-10-31T11:04:30;17.50;99.90
20376;DHT22;10347;51.828;6.466;2022-10-31T11:06:58;17.50;99.90
20376;DHT22;10347;51.828;6.466;2022-10-31T11:09:24;17.50;99.90
20376;DHT22;10347;51.828;6.466;2022-10-31T11:11:49;17.50;99.90
20376;DHT22;10347;51.828;6.466;2022-10-31T11:14:16;17.60;99.90
20376;DHT22;10347;51.828;6.466;2022-10-31T11:16:45;17.60;99.90
20376;DHT22;10347;51.828;6.466;2022-10-31T11:19:23;17.70;99.90
20376;DHT22;10347;51.828;6.466;2022-10-31T11:21:51;17.70;99.90
20376;DHT22;10347;51.828;6.466;2022-10-31T11:24:22;17.70;99.90
20376;DHT22;10347;51.828;6.466;2022-10-31T11:26:49;17.70;99.90
20376;DHT22;10347;51.828;6.466;2022-10-31T11:29:23;17.70;99.90
20376;DHT22;10347;51.828;6.466;2022-10-31T11:31:51;17.80;99.90
20376;DHT22;10347;51.828;6.466;2022-10-31T11:34:37;17.90;99.90
20376;DHT22;10347;51.828;6.466;2022-10-31T11:37:15;17.90;99.90
20376;DHT22;10347;51.828;6.466;2022-10-31T11:39:45;17.90;99.90
20376;DHT22;10347;51.828;6.466;2022-10-31T11:42:20;17.90;99.90
20376;DHT22;10347;51.828;6.466;2022-10-31T11:44:46;18.00;99.90
20376;DHT22;10347;51.828;6.466;2022-10-31T11:47:15;18.00;99.90
20376;DHT22;10347;51.828;6.466;2022-10-31T11:49:46;18.00;99.90
20376;DHT22;10347;51.828;6.466;2022-10-31T11:52:21;18.00;99.90
20376;DHT22;10347;51.828;6.466;2022-10-31T11:54:55;18.00;99.90
20376;DHT22;10347;51.828;6.466;2022-10-31T11:57:26;18.10;99.90
20376;DHT22;10347;51.828;6.466;2022-10-31T11:59:57;18.10;99.90
20376;DHT22;10347;51.828;6.466;2022-10-31T12:02:24;18.10;99.90
20376;DHT22;10347;51.828;6.466;2022-10-31T12:05:02;18.20;99.90
20376;DHT22;10347;51.828;6.466;2022-10-31T12:07:30;18.20;99.90
20376;DHT22;10347;51.828;6.466;2022-10-31T12:09:55;18.20;99.90
20376;DHT22;10347;51.828;6.466;2022-10-31T12:12:24;18.20;99.90
20376;DHT22;10347;51.828;6.466;2022-10-31T12:25:52;18.30;99.90
20376;DHT22;10347;51.828;6.466;2022-10-31T12:34:00;18.30;99.90
20376;DHT22;10347;51.828;6.466;2022-10-31T12:42:37;18.40;99.90
20376;DHT22;10347;51.828;6.466;2022-10-31T12:56:31;18.50;99.90
20376;DHT22;10347;51.828;6.466;2022-10-31T12:59:08;18.50;99.90
20376;DHT22;10347;51.828;6.466;2022-10-31T13:01:35;18.50;99.90
20376;DHT22;10347;51.828;6.466;2022-10-31T13:04:40;18.50;99.90
20376;DHT22;10347;51.828;6.466;2022-10-31T13:07:15;18.50;99.90
20376;DHT22;10347;51.828;6.466;2022-10-31T13:09:52;18.50;99.90
20376;DHT22;10347;51.828;6.466;2022-10-31T13:12:20;18.50;99.90
20376;DHT22;10347;51.828;6.466;2022-10-31T13:15:16;18.50;99.90
20376;DHT22;10347;51.828;6.466;2022-10-31T13:17:55;18.50;99.90
20376;DHT22;10347;51.828;6.466;2022-10-31T13:20:44;18.50;99.90
20376;DHT22;10347;51.828;6.466;2022-10-31T13:25:54;18.60;99.90
20376;DHT22;10347;51.828;6.466;2022-10-31T13:30:46;18.60;99.90
20376;DHT22;10347;51.828;6.466;2022-10-31T13:33:19;18.60;99.90
20376;DHT22;10347;51.828;6.466;2022-10-31T13:36:21;18.60;99.90
20376;DHT22;10347;51.828;6.466;2022-10-31T13:41:44;18.60;99.90
20376;DHT22;10347;51.828;6.466;2022-10-31T13:46:44;18.60;99.90
20376;DHT22;10347;51.828;6.466;2022-10-31T13:52:16;18.70;99.90
20376;DHT22;10347;51.828;6.466;2022-10-31T13:54:46;18.70;99.90
20376;DHT22;10347;51.828;6.466;2022-10-31T13:57:34;18.70;99.90
20376;DHT22;10347;51.828;6.466;2022-10-31T14:00:06;18.70;99.90
20376;DHT22;10347;51.828;6.466;2022-10-31T14:02:35;18.70;99.90
20376;DHT22;10347;51.828;6.466;2022-10-31T14:05:06;18.70;99.90
20376;DHT22;10347;51.828;6.466;2022-10-31T14:07:32;18.70;99.90
20376;DHT22;10347;51.828;6.466;2022-10-31T14:10:02;18.70;99.90
20376;DHT22;10347;51.828;6.466;2022-10-31T14:12:40;18.70;99.90
20376;DHT22;10347;51.828;6.466;2022-10-31T14:15:14;18.80;99.90
20376;DHT22;10347;51.828;6.466;2022-10-31T14:17:54;18.80;99.90
20376;DHT22;10347;51.828;6.466;2022-10-31T14:25:53;18.80;99.90
20376;DHT22;10347;51.828;6.466;2022-10-31T14:28:32;18.80;99.90
20376;DHT22;10347;51.828;6.466;2022-10-31T14:30:58;18.80;99.90
20376;DHT22;10347;51.828;6.466;2022-10-31T14:33:27;18.80;99.90
20376;DHT22;10347;51.828;6.466;2022-10-31T14:38:55;18.80;99.90
20376;DHT22;10347;51.828;6.466;2022-10-31T14:41:30;18.80;99.90
20376;DHT22;10347;51.828;6.466;2022-10-31T14:46:57;18.80;99.90
20376;DHT22;10347;51.828;6.466;2022-10-31T14:52:07;18.80;99.90
20376;DHT22;10347;51.828;6.466;2022-10-31T14:54:47;18.80;99.90
20376;DHT22;10347;51.828;6.466;2022-10-31T14:57:20;18.80;99.90
20376;DHT22;10347;51.828;6.466;2022-10-31T14:59:50;18.80;99.90
20376;DHT22;10347;51.828;6.466;2022-10-31T15:02:40;18.80;99.90
20376;DHT22;10347;51.828;6.466;2022-10-31T15:05:11;18.80;99.90
20376;DHT22;10347;51.828;6.466;2022-10-31T15:07:57;18.80;99.90
20376;DHT22;10347;51.828;6.466;2022-10-31T15:10:31;18.80;99.90
20376;DHT22;10347;51.828;6.466;2022-10-31T15:13:18;18.80;99.90
20376;DHT22;10347;51.828;6.466;2022-10-31T15:15:44;18.80;99.90
20376;DHT22;10347;51.828;6.466;2022-10-31T15:18:17;18.80;99.90
20376;DHT22;10347;51.828;6.466;2022-10-31T15:20:45;18.80;99.90
20376;DHT22;10347;51.828;6.466;2022-10-31T15:23:16;18.80;99.90
20376;DHT22;10347;51.828;6.466;2022-10-31T15:25:41;18.80;99.90
20376;DHT22;10347;51.828;6.466;2022-10-31T15:28:23;18.80;99.90
20376;DHT22;10347;51.828;6.466;2022-10-31T15:30:50;18.80;99.90
20376;DHT22;10347;51.828;6.466;2022-10-31T15:33:31;18.80;99.90
20376;DHT22;10347;51.828;6.466;2022-10-31T15:36:01;18.80;99.90
20376;DHT22;10347;51.828;6.466;2022-10-31T15:38:28;18.80;99.90
20376;DHT22;10347;51.828;6.466;2022-10-31T15:40:58;18.80;99.90
20376;DHT22;10347;51.828;6.466;2022-10-31T15:43:25;18.80;99.90
20376;DHT22;10347;51.828;6.466;2022-10-31T15:45:50;18.80;99.90
20376;DHT22;10347;51.828;6.466;2022-10-31T15:48:23;18.80;99.90
20376;DHT22;10347;51.828;6.466;2022-10-31T15:50:55;18.80;99.90
20376;DHT22;10347;51.828;6.466;2022-10-31T15:55:57;18.80;99.90
20376;DHT22;10347;51.828;6.466;2022-10-31T15:58:24;18.80;99.90
20376;DHT22;10347;51.828;6.466;2022-10-31T16:01:18;18.80;99.90
20376;DHT22;10347;51.828;6.466;2022-10-31T16:03:43;18.80;99.90
20376;DHT22;10347;51.828;6.466;2022-10-31T16:06:20;18.80;99.90
20376;DHT22;10347;51.828;6.466;2022-10-31T16:08:48;18.80;99.90
20376;DHT22;10347;51.828;6.466;2022-10-31T16:11:35;18.80;99.90
20376;DHT22;10347;51.828;6.466;2022-10-31T16:16:40;18.80;99.90
20376;DHT22;10347;51.828;6.466;2022-10-31T16:19:57;18.80;99.90
20376;DHT22;10347;51.828;6.466;2022-10-31T16:22:09;18.80;99.90
20376;DHT22;10347;51.828;6.466;2022-10-31T16:24:54;18.70;99.90
20376;DHT22;10347;51.828;6.466;2022-10-31T16:27:26;18.70;99.90
20376;DHT22;10347;51.828;6.466;2022-10-31T16:29:55;18.70;99.90
20376;DHT22;10347;51.828;6.466;2022-10-31T16:37:39;18.70;99.90
20376;DHT22;10347;51.828;6.466;2022-10-31T16:40:05;18.70;99.90
20376;DHT22;10347;51.828;6.466;2022-10-31T16:42:32;18.70;99.90
20376;DHT22;10347;51.828;6.466;2022-10-31T16:44:58;18.70;99.90
20376;DHT22;10347;51.828;6.466;2022-10-31T16:47:24;18.60;99.90
20376;DHT22;10347;51.828;6.466;2022-10-31T16:49:50;18.60;99.90
20376;DHT22;10347;51.828;6.466;2022-10-31T16:52:16;18.60;99.90
20376;DHT22;10347;51.828;6.466;2022-10-31T16:54:42;18.50;99.90
20376;DHT22;10347;51.828;6.466;2022-10-31T16:57:14;18.50;99.90
20376;DHT22;10347;51.828;6.466;2022-10-31T16:59:40;18.50;99.90
20376;DHT22;10347;51.828;6.466;2022-10-31T17:02:11;18.50;99.90
20376;DHT22;10347;51.828;6.466;2022-10-31T17:04:38;18.50;99.90
20376;DHT22;10347;51.828;6.466;2022-10-31T17:07:04;18.50;99.90
20376;DHT22;10347;51.828;6.466;2022-10-31T17:09:29;18.50;99.90
20376;DHT22;10347;51.828;6.466;2022-10-31T17:11:55;18.50;99.90
20376;DHT22;10347;51.828;6.466;2022-10-31T17:14:20;18.50;99.90
20376;DHT22;10347;51.828;6.466;2022-10-31T17:16:46;18.40;99.90
20376;DHT22;10347;51.828;6.466;2022-10-31T17:19:12;18.50;99.90
20376;DHT22;10347;51.828;6.466;2022-10-31T17:21:38;18.50;99.90
20376;DHT22;10347;51.828;6.466;2022-10-31T17:24:04;18.40;99.90
20376;DHT22;10347;51.828;6.466;2022-10-31T17:26:30;18.40;99.90
20376;DHT22;10347;51.828;6.466;2022-10-31T17:28:56;18.40;99.90
20376;DHT22;10347;51.828;6.466;2022-10-31T17:31:24;18.40;99.90
20376;DHT22;10347;51.828;6.466;2022-10-31T17:33:54;18.40;99.90
20376;DHT22;10347;51.828;6.466;2022-10-31T17:36:19;18.40;99.90
20376;DHT22;10347;51.828;6.466;2022-10-31T17:38:45;18.40;99.90
20376;DHT22;10347;51.828;6.466;2022-10-31T17:41:10;18.40;99.90
20376;DHT22;10347;51.828;6.466;2022-10-31T17:43:36;18.30;99.90
20376;DHT22;10347;51.828;6.466;2022-10-31T17:46:01;18.30;99.90
20376;DHT22;10347;51.828;6.466;2022-10-31T17:48:27;18.30;99.90
20376;DHT22;10347;51.828;6.466;2022-10-31T17:50:53;18.30;99.90
20376;DHT22;10347;51.828;6.466;2022-10-31T17:53:19;18.30;99.90
20376;DHT22;10347;51.828;6.466;2022-10-31T17:55:45;18.20;99.90